Time;durP1;ratioP1;P1;durP2;ratioP2;P2;SDS_P1;SDS_P2;PMS_P1;PMS_P2;Temp;Humidity;BMP_temperature;BMP_pressure;BME280_temperature;BME280_humidity;BME280_pressure;Samples;Min_cycle;Max_cycle;Signal;HPM_P1;HPM_P2
2022/03/27 00:02:08;;;;;;;1999.90;999.90;;;12.80;99.90;;;;;;5014272;28;20168;-71
2022/03/27 00:04:35;;;;;;;1999.90;999.90;;;12.80;99.90;;;;;;5013819;28;20195;-71
2022/03/27 00:07:01;;;;;;;1999.90;999.90;;;12.70;99.90;;;;;;5014113;28;20173;-70
2022/03/27 00:09:26;;;;;;;1999.90;999.90;;;12.70;99.90;;;;;;5013982;28;20775;-71
2022/03/27 00:11:52;;;;;;;1999.90;999.90;;;12.60;99.90;;;;;;5013853;28;20170;-71
2022/03/27 00:14:17;;;;;;;1999.90;999.90;;;12.70;99.90;;;;;;5013355;28;20201;-70
2022/03/27 00:16:43;;;;;;;1999.90;999.90;;;12.60;99.90;;;;;;5013760;28;20258;-71
2022/03/27 00:19:09;;;;;;;1999.90;999.90;;;12.60;99.90;;;;;;5013612;28;20168;-71
2022/03/27 00:21:35;;;;;;;1999.90;999.90;;;12.60;99.90;;;;;;5013470;28;20660;-70
2022/03/27 00:24:01;;;;;;;1999.90;999.90;;;12.60;99.90;;;;;;5013085;28;20165;-70
2022/03/27 00:26:27;;;;;;;1999.90;999.90;;;12.50;99.90;;;;;;5013366;28;20399;-70
2022/03/27 00:28:52;;;;;;;1999.90;999.90;;;12.50;99.90;;;;;;5013176;28;20922;-70
2022/03/27 00:31:19;;;;;;;1999.90;999.90;;;12.50;99.90;;;;;;5063516;23;20220;-67
2022/03/27 00:33:45;;;;;;;1999.90;999.90;;;12.50;99.90;;;;;;5032900;28;20165;-67
2022/03/27 00:36:13;;;;;;;1999.90;999.90;;;12.50;99.90;;;;;;5032437;28;20408;-67
2022/03/27 00:38:40;;;;;;;1999.90;999.90;;;12.40;99.90;;;;;;5032832;28;20922;-67
2022/03/27 00:41:06;;;;;;;1999.90;999.90;;;12.40;99.90;;;;;;5032705;28;20429;-67
2022/03/27 00:43:33;;;;;;;1999.90;999.90;;;12.40;99.90;;;;;;5032672;28;20765;-67
2022/03/27 00:45:59;;;;;;;1999.90;999.90;;;12.40;99.90;;;;;;5032532;28;20172;-67
2022/03/27 00:48:25;;;;;;;1999.90;999.90;;;12.30;99.90;;;;;;5032663;28;20966;-67
2022/03/27 00:50:52;;;;;;;1999.90;999.90;;;12.30;99.90;;;;;;5032620;28;20180;-67
2022/03/27 00:53:18;;;;;;;1999.90;999.90;;;12.10;99.90;;;;;;5032601;28;20488;-67
2022/03/27 00:55:45;;;;;;;1999.90;999.90;;;12.20;99.90;;;;;;5032283;28;20404;-67
2022/03/27 00:58:12;;;;;;;1999.90;999.90;;;12.10;99.90;;;;;;5032345;28;20485;-67
2022/03/27 01:00:37;;;;;;;1999.90;999.90;;;12.00;99.90;;;;;;5032396;28;20790;-67
2022/03/27 01:03:05;;;;;;;1999.90;999.90;;;12.00;99.90;;;;;;5032433;28;20403;-67
2022/03/27 01:05:31;;;;;;;1999.90;999.90;;;11.90;99.90;;;;;;5032130;28;20168;-67
2022/03/27 01:07:57;;;;;;;1999.90;999.90;;;11.90;99.90;;;;;;5032415;28;21058;-67
2022/03/27 01:10:25;;;;;;;1999.90;999.90;;;11.80;99.90;;;;;;5032173;28;20422;-67
2022/03/27 01:12:51;;;;;;;1999.90;999.90;;;11.80;99.90;;;;;;5032243;28;20433;-67
2022/03/27 01:15:45;;;;;;;1999.90;999.90;;;11.80;99.90;;;;;;5032201;28;20422;-67
2022/03/27 01:18:12;;;;;;;1999.90;999.90;;;11.80;99.90;;;;;;5016898;28;20509;-67
2022/03/27 01:20:41;;;;;;;1999.90;999.90;;;11.80;99.90;;;;;;5032146;28;20822;-67
2022/03/27 01:23:12;;;;;;;1999.90;999.90;;;11.80;99.90;;;;;;5032093;28;20415;-67
2022/03/27 01:25:39;;;;;;;1999.90;999.90;;;11.80;99.90;;;;;;5031809;28;20442;-67
2022/03/27 01:28:06;;;;;;;1999.90;999.90;;;11.70;99.90;;;;;;5032157;28;20395;-67
2022/03/27 01:30:32;;;;;;;1999.90;999.90;;;11.70;99.90;;;;;;5031916;28;20452;-67
2022/03/27 01:32:58;;;;;;;1999.90;999.90;;;11.60;99.90;;;;;;5032071;28;20402;-67
2022/03/27 01:35:23;;;;;;;1999.90;999.90;;;11.70;99.90;;;;;;5031777;28;20419;-67
2022/03/27 01:37:49;;;;;;;1999.90;999.90;;;11.70;99.90;;;;;;5031871;28;20200;-67
2022/03/27 01:40:17;;;;;;;1999.90;999.90;;;11.60;99.90;;;;;;5032057;28;20725;-67
2022/03/27 01:42:43;;;;;;;1999.90;999.90;;;11.60;99.90;;;;;;5031834;28;20407;-67
2022/03/27 01:45:09;;;;;;;1999.90;999.90;;;11.60;99.90;;;;;;5031642;28;20486;-67
2022/03/27 01:47:36;;;;;;;1999.90;999.90;;;11.60;99.90;;;;;;5034724;28;20399;-67
2022/03/27 01:50:04;;;;;;;1999.90;999.90;;;11.50;99.90;;;;;;5036014;28;20919;-67
2022/03/27 01:52:29;;;;;;;1999.90;999.90;;;11.50;99.90;;;;;;5035855;28;20476;-67
2022/03/27 01:54:55;;;;;;;1999.90;999.90;;;11.40;99.90;;;;;;5035858;28;20415;-67
2022/03/27 01:57:20;;;;;;;1999.90;999.90;;;11.40;99.90;;;;;;5035901;28;20192;-67
2022/03/27 01:59:46;;;;;;;1999.90;999.90;;;11.30;99.90;;;;;;5035831;28;20173;-67
2022/03/27 02:02:11;;;;;;;1999.90;999.90;;;11.30;99.90;;;;;;5035739;28;20199;-67
2022/03/27 02:04:37;;;;;;;1999.90;999.90;;;11.30;99.90;;;;;;5035403;28;20167;-67
2022/03/27 02:07:03;;;;;;;1999.90;999.90;;;11.20;99.90;;;;;;5035727;28;20216;-67
2022/03/27 02:09:29;;;;;;;1999.90;999.90;;;11.20;99.90;;;;;;5035597;28;20601;-67
2022/03/27 02:11:54;;;;;;;1999.90;999.90;;;11.20;99.90;;;;;;5035483;28;20441;-67
2022/03/27 02:14:20;;;;;;;1999.90;999.90;;;11.10;99.90;;;;;;5035293;28;20165;-67
2022/03/27 02:16:46;;;;;;;1999.90;999.90;;;11.10;99.90;;;;;;5035485;28;20753;-67
2022/03/27 02:19:11;;;;;;;1999.90;999.90;;;11.10;99.90;;;;;;5035410;28;20538;-67
2022/03/27 02:21:39;;;;;;;1999.90;999.90;;;11.10;99.90;;;;;;5035580;28;20216;-67
2022/03/27 02:24:06;;;;;;;1999.90;999.90;;;11.20;99.90;;;;;;5035120;28;20538;-67
2022/03/27 02:26:32;;;;;;;1999.90;999.90;;;11.10;99.90;;;;;;5035458;28;20411;-67
2022/03/27 02:28:58;;;;;;;1999.90;999.90;;;11.10;99.90;;;;;;5035369;28;20509;-67
2022/03/27 02:31:24;;;;;;;1999.90;999.90;;;11.00;99.90;;;;;;5035015;28;20521;-67
2022/03/27 02:33:49;;;;;;;1999.90;999.90;;;11.00;99.90;;;;;;5035141;28;20173;-67
2022/03/27 02:36:16;;;;;;;1999.90;999.90;;;11.00;99.90;;;;;;5034897;28;20429;-67
2022/03/27 02:38:42;;;;;;;1999.90;999.90;;;10.90;99.90;;;;;;5035097;28;20187;-67
2022/03/27 02:41:08;;;;;;;1999.90;999.90;;;10.80;99.90;;;;;;5034940;28;20414;-67
2022/03/27 02:43:34;;;;;;;1999.90;999.90;;;10.80;99.90;;;;;;5035052;28;20175;-67
2022/03/27 02:46:00;;;;;;;1999.90;999.90;;;10.70;99.90;;;;;;5034816;28;20225;-66
2022/03/27 02:48:26;;;;;;;1999.90;999.90;;;10.80;99.90;;;;;;5034887;28;20419;-67
2022/03/27 02:50:52;;;;;;;1999.90;999.90;;;10.80;99.90;;;;;;5034835;28;20938;-67
2022/03/27 02:53:17;;;;;;;1999.90;999.90;;;10.70;99.90;;;;;;5034878;28;20410;-67
2022/03/27 02:55:43;;;;;;;1999.90;999.90;;;10.60;99.90;;;;;;5034503;28;20179;-66
2022/03/27 02:58:09;;;;;;;1999.90;999.90;;;10.60;99.90;;;;;;5034709;28;20215;-66
2022/03/27 03:00:35;;;;;;;1999.90;999.90;;;10.60;99.90;;;;;;5034726;28;20195;-66
2022/03/27 03:03:01;;;;;;;1999.90;999.90;;;10.50;99.90;;;;;;5034654;28;20493;-66
2022/03/27 03:05:26;;;;;;;1999.90;999.90;;;10.40;99.90;;;;;;5034357;28;20514;-66
2022/03/27 03:07:52;;;;;;;1999.90;999.90;;;10.30;99.90;;;;;;5034574;28;20179;-67
2022/03/27 03:10:18;;;;;;;1999.90;999.90;;;10.30;99.90;;;;;;5034428;28;20192;-67
2022/03/27 03:12:44;;;;;;;1999.90;999.90;;;10.30;99.90;;;;;;5034646;28;20172;-67
2022/03/27 03:15:10;;;;;;;1999.90;999.90;;;10.20;99.90;;;;;;5034181;28;20410;-67
2022/03/27 03:17:37;;;;;;;1999.90;999.90;;;10.10;99.90;;;;;;5034361;28;20461;-66
2022/03/27 03:20:03;;;;;;;1999.90;999.90;;;10.10;99.90;;;;;;5034519;28;20777;-66
2022/03/27 03:22:30;;;;;;;1999.90;999.90;;;10.10;99.90;;;;;;5034251;28;20904;-66
2022/03/27 03:24:56;;;;;;;1999.90;999.90;;;10.10;99.90;;;;;;5034148;28;20422;-66
2022/03/27 03:27:21;;;;;;;1999.90;999.90;;;10.10;99.90;;;;;;5034344;28;20442;-69
2022/03/27 03:29:47;;;;;;;1999.90;999.90;;;10.00;99.90;;;;;;5034226;28;20180;-68
2022/03/27 03:32:13;;;;;;;1999.90;999.90;;;10.00;99.90;;;;;;5033969;28;20553;-68
2022/03/27 03:34:39;;;;;;;1999.90;999.90;;;10.00;99.90;;;;;;5033787;28;20637;-68
2022/03/27 03:37:04;;;;;;;1999.90;999.90;;;10.00;99.90;;;;;;5033966;28;20461;-68
2022/03/27 03:39:30;;;;;;;1999.90;999.90;;;10.00;99.90;;;;;;5033952;28;20522;-68
2022/03/27 03:41:56;;;;;;;1999.90;999.90;;;10.00;99.90;;;;;;5033923;28;20194;-68
2022/03/27 03:44:21;;;;;;;1999.90;999.90;;;10.00;99.90;;;;;;5033615;28;20175;-68
2022/03/27 03:46:48;;;;;;;1999.90;999.90;;;9.90;99.90;;;;;;5033833;28;20422;-67
2022/03/27 03:49:14;;;;;;;1999.90;999.90;;;9.80;99.90;;;;;;5034081;28;20588;-68
2022/03/27 03:51:40;;;;;;;1999.90;999.90;;;9.80;99.90;;;;;;5033751;28;20434;-68
2022/03/27 03:54:09;;;;;;;1999.90;999.90;;;9.80;99.90;;;;;;5033438;28;20409;-68
2022/03/27 03:56:36;;;;;;;1999.90;999.90;;;9.80;99.90;;;;;;5033684;28;20405;-68
2022/03/27 03:59:02;;;;;;;1999.90;999.90;;;9.80;99.90;;;;;;5033688;28;20459;-68
2022/03/27 04:01:27;;;;;;;1999.90;999.90;;;9.70;99.90;;;;;;5033450;28;20427;-68
2022/03/27 04:03:53;;;;;;;1999.90;999.90;;;9.70;99.90;;;;;;5033541;28;20163;-68
2022/03/27 04:06:20;;;;;;;1999.90;999.90;;;9.70;99.90;;;;;;5033403;28;20248;-68
2022/03/27 04:08:45;;;;;;;1999.90;999.90;;;9.70;99.90;;;;;;5033146;28;20229;-68
2022/03/27 04:11:16;;;;;;;1999.90;999.90;;;9.70;99.90;;;;;;5033139;28;20427;-68
2022/03/27 04:13:44;;;;;;;1999.90;999.90;;;9.60;99.90;;;;;;5033330;28;20250;-68
2022/03/27 04:16:14;;;;;;;1999.90;999.90;;;9.70;99.90;;;;;;5032987;28;20390;-68
2022/03/27 04:18:40;;;;;;;1999.90;999.90;;;9.70;99.90;;;;;;5033209;28;20449;-68
2022/03/27 04:21:06;;;;;;;1999.90;999.90;;;9.60;99.90;;;;;;5033295;28;20800;-68
2022/03/27 04:23:32;;;;;;;1999.90;999.90;;;9.60;99.90;;;;;;5033098;28;20489;-68
2022/03/27 04:25:58;;;;;;;1999.90;999.90;;;9.50;99.90;;;;;;5032862;28;20887;-68
2022/03/27 04:28:24;;;;;;;1999.90;999.90;;;9.50;99.90;;;;;;5032962;28;20442;-68
2022/03/27 04:30:49;;;;;;;1999.90;999.90;;;9.50;99.90;;;;;;5033012;28;20222;-68
2022/03/27 04:33:16;;;;;;;1999.90;999.90;;;9.50;99.90;;;;;;5032971;28;20317;-68
2022/03/27 04:35:42;;;;;;;1999.90;999.90;;;9.50;99.90;;;;;;5032713;28;20571;-68
2022/03/27 04:38:07;;;;;;;1999.90;999.90;;;9.40;99.90;;;;;;5032823;28;20452;-68
2022/03/27 04:40:34;;;;;;;1999.90;999.90;;;9.30;99.90;;;;;;5032749;28;20428;-68
2022/03/27 04:42:59;;;;;;;1999.90;999.90;;;9.30;99.90;;;;;;5032792;28;20194;-67
2022/03/27 04:45:25;;;;;;;1999.90;999.90;;;9.30;99.90;;;;;;5032410;28;20405;-67
2022/03/27 04:47:50;;;;;;;1999.90;999.90;;;9.30;99.90;;;;;;5032999;28;20666;-67
2022/03/27 04:50:16;;;;;;;1999.90;999.90;;;9.30;99.90;;;;;;5032582;28;20200;-67
2022/03/27 04:52:42;;;;;;;1999.90;999.90;;;9.30;99.90;;;;;;5032624;28;20179;-67
2022/03/27 04:55:08;;;;;;;1999.90;999.90;;;9.30;99.90;;;;;;5032343;28;20640;-67
2022/03/27 04:57:35;;;;;;;1999.90;999.90;;;9.30;99.90;;;;;;5032489;28;20244;-67
2022/03/27 05:00:01;;;;;;;1999.90;999.90;;;9.30;99.90;;;;;;5032635;28;20402;-67
2022/03/27 05:02:26;;;;;;;1999.90;999.90;;;9.10;99.90;;;;;;5032459;28;20875;-67
2022/03/27 05:04:52;;;;;;;1999.90;999.90;;;9.00;99.90;;;;;;5032243;28;20414;-67
2022/03/27 05:07:17;;;;;;;1999.90;999.90;;;9.00;99.90;;;;;;5032329;28;20179;-67
2022/03/27 05:09:43;;;;;;;1999.90;999.90;;;8.90;99.90;;;;;;5032332;28;20171;-68
2022/03/27 05:12:09;;;;;;;1999.90;999.90;;;8.80;99.90;;;;;;5032240;28;20200;-68
2022/03/27 05:14:35;;;;;;;1999.90;999.90;;;8.90;99.90;;;;;;5032163;28;20175;-68
2022/03/27 05:17:02;;;;;;;1999.90;999.90;;;8.90;99.90;;;;;;5032264;28;20514;-68
2022/03/27 05:19:29;;;;;;;1999.90;999.90;;;8.90;99.90;;;;;;5032237;28;20746;-68
2022/03/27 05:21:54;;;;;;;1999.90;999.90;;;8.90;99.90;;;;;;5031350;28;20422;-68
2022/03/27 05:24:20;;;;;;;1999.90;999.90;;;8.90;99.90;;;;;;5031850;28;20402;-68
2022/03/27 05:26:45;;;;;;;1999.90;999.90;;;8.90;99.90;;;;;;5031983;28;20290;-68
2022/03/27 05:29:11;;;;;;;1999.90;999.90;;;8.90;99.90;;;;;;5032069;28;20175;-67
2022/03/27 05:31:36;;;;;;;1999.90;999.90;;;8.90;99.90;;;;;;5031845;28;20264;-67
2022/03/27 05:34:03;;;;;;;1999.90;999.90;;;8.80;99.90;;;;;;5031760;28;20537;-68
2022/03/27 05:36:29;;;;;;;1999.90;999.90;;;8.80;99.90;;;;;;5031923;28;20291;-68
2022/03/27 05:38:55;;;;;;;1999.90;999.90;;;8.70;99.90;;;;;;5031995;28;21016;-68
2022/03/27 05:41:21;;;;;;;1999.90;999.90;;;8.60;99.90;;;;;;5031815;28;20493;-68
2022/03/27 05:43:47;;;;;;;1999.90;999.90;;;8.50;99.90;;;;;;5031969;28;20178;-67
2022/03/27 05:46:13;;;;;;;1999.90;999.90;;;8.50;99.90;;;;;;5031808;28;20417;-67
2022/03/27 05:48:38;;;;;;;1999.90;999.90;;;8.50;99.90;;;;;;5031858;28;20250;-68
2022/03/27 05:51:04;;;;;;;1999.90;999.90;;;8.50;99.90;;;;;;5031745;28;20201;-68
2022/03/27 05:53:31;;;;;;;1999.90;999.90;;;8.40;99.90;;;;;;5031851;28;20717;-68
2022/03/27 05:55:57;;;;;;;1999.90;999.90;;;8.50;99.90;;;;;;5031467;28;20172;-68
2022/03/27 05:58:23;;;;;;;1999.90;999.90;;;8.50;99.90;;;;;;5031894;28;20453;-68
2022/03/27 06:00:50;;;;;;;1999.90;999.90;;;8.50;99.90;;;;;;5031685;28;20464;-68
2022/03/27 06:03:16;;;;;;;1999.90;999.90;;;8.60;99.90;;;;;;5031755;28;20402;-68
2022/03/27 06:05:42;;;;;;;1999.90;999.90;;;8.60;99.90;;;;;;5031317;28;20405;-68
2022/03/27 06:08:08;;;;;;;1999.90;999.90;;;8.60;99.90;;;;;;5031789;28;20408;-68
2022/03/27 06:10:35;;;;;;;1999.90;999.90;;;8.70;99.90;;;;;;5031583;28;20198;-67
2022/03/27 06:13:03;;;;;;;1999.90;999.90;;;8.60;99.90;;;;;;5031870;28;20416;-68
2022/03/27 06:15:29;;;;;;;1999.90;999.90;;;8.70;99.90;;;;;;5031370;28;20489;-68
2022/03/27 06:17:56;;;;;;;1999.90;999.90;;;8.80;99.90;;;;;;5031561;28;20540;-68
2022/03/27 06:20:23;;;;;;;1999.90;999.90;;;8.90;99.90;;;;;;5031418;28;20421;-68
2022/03/27 06:22:50;;;;;;;1999.90;999.90;;;8.90;99.90;;;;;;5031558;28;20413;-68
2022/03/27 06:25:17;;;;;;;1999.90;999.90;;;8.90;99.90;;;;;;5031265;28;20764;-68
2022/03/27 06:27:44;;;;;;;1999.90;999.90;;;8.90;99.90;;;;;;5031567;28;20421;-68
2022/03/27 06:30:15;;;;;;;1999.90;999.90;;;8.90;99.90;;;;;;5031345;28;20401;-68
2022/03/27 06:32:42;;;;;;;1999.90;999.90;;;9.00;99.90;;;;;;5033229;28;20405;-68
2022/03/27 06:35:10;;;;;;;1999.90;999.90;;;9.10;99.90;;;;;;5034969;28;20416;-68
2022/03/27 06:37:37;;;;;;;1999.90;999.90;;;9.20;99.90;;;;;;5035062;28;20457;-68
2022/03/27 06:40:03;;;;;;;1999.90;999.90;;;9.20;99.90;;;;;;5035060;28;20407;-68
2022/03/27 06:42:29;;;;;;;1999.90;999.90;;;9.30;99.90;;;;;;5035050;28;20410;-68
2022/03/27 06:44:55;;;;;;;1999.90;999.90;;;9.50;99.90;;;;;;5034848;28;20458;-67
2022/03/27 06:47:22;;;;;;;1999.90;999.90;;;9.60;99.90;;;;;;5035002;28;20171;-69
2022/03/27 06:49:49;;;;;;;1999.90;999.90;;;9.70;99.90;;;;;;5034937;28;20417;-68
2022/03/27 06:52:16;;;;;;;1999.90;999.90;;;9.80;99.90;;;;;;5034783;28;20778;-68
2022/03/27 06:54:43;;;;;;;1999.90;999.90;;;9.90;99.90;;;;;;5034520;28;20415;-68
2022/03/27 06:57:09;;;;;;;1999.90;999.90;;;10.00;99.90;;;;;;5034979;28;21006;-67
2022/03/27 07:05:05;;;;;;;1999.90;999.90;;;10.20;99.90;;;;;;5034393;28;20405;-68
2022/03/27 07:07:31;;;;;;;1999.90;999.90;;;10.30;99.90;;;;;;5034541;28;20509;-67
2022/03/27 07:09:56;;;;;;;1999.90;999.90;;;10.40;99.90;;;;;;5034539;28;20919;-68
2022/03/27 07:12:23;;;;;;;1999.90;999.90;;;10.50;99.90;;;;;;5034485;28;20418;-68
2022/03/27 07:14:49;;;;;;;1999.90;999.90;;;10.60;99.90;;;;;;5034144;28;20190;-68
2022/03/27 07:17:17;;;;;;;1999.90;999.90;;;10.60;99.90;;;;;;5034391;28;20461;-68
2022/03/27 07:19:46;;;;;;;1999.90;999.90;;;10.60;99.90;;;;;;5034551;28;20491;-68
2022/03/27 07:22:12;;;;;;;1999.90;999.90;;;10.70;99.90;;;;;;5034258;28;20476;-68
2022/03/27 07:24:38;;;;;;;1999.90;999.90;;;10.70;99.90;;;;;;5034003;28;20407;-68
2022/03/27 07:27:04;;;;;;;1999.90;999.90;;;10.70;99.90;;;;;;5034266;28;20441;-68
2022/03/27 07:29:30;;;;;;;1999.90;999.90;;;10.80;99.90;;;;;;5034205;28;20462;-68
2022/03/27 07:31:57;;;;;;;1999.90;999.90;;;11.00;99.90;;;;;;5033866;28;20486;-69
2022/03/27 07:34:23;;;;;;;1999.90;999.90;;;11.20;99.90;;;;;;5033803;28;20465;-68
2022/03/27 07:36:49;;;;;;;1999.90;999.90;;;11.20;99.90;;;;;;5034068;28;20459;-68
2022/03/27 07:39:15;;;;;;;1999.90;999.90;;;11.20;99.90;;;;;;5034017;28;20417;-69
2022/03/27 07:41:40;;;;;;;1999.90;999.90;;;11.10;99.90;;;;;;5033920;28;20191;-69
2022/03/27 07:44:07;;;;;;;1999.90;999.90;;;11.20;99.90;;;;;;5032735;28;20411;-68
2022/03/27 07:46:33;;;;;;;1999.90;999.90;;;11.20;99.90;;;;;;5033838;28;20180;-68
2022/03/27 07:48:58;;;;;;;1999.90;999.90;;;11.20;99.90;;;;;;5033802;28;20426;-68
2022/03/27 07:51:24;;;;;;;1999.90;999.90;;;11.40;99.90;;;;;;5033807;28;21096;-68
2022/03/27 07:53:50;;;;;;;1999.90;999.90;;;11.50;99.90;;;;;;5033782;28;20180;-68
2022/03/27 07:56:15;;;;;;;1999.90;999.90;;;11.60;99.90;;;;;;5033573;28;20176;-68
2022/03/27 07:58:41;;;;;;;1999.90;999.90;;;11.70;99.90;;;;;;5033732;28;20687;-68
2022/03/27 08:01:07;;;;;;;1999.90;999.90;;;11.80;99.90;;;;;;5033597;28;20215;-68
2022/03/27 08:03:38;;;;;;;1999.90;999.90;;;12.00;99.90;;;;;;5033636;28;20223;-68
2022/03/27 08:06:03;;;;;;;1999.90;999.90;;;11.90;99.90;;;;;;5033636;28;20243;-68
2022/03/27 08:08:30;;;;;;;1999.90;999.90;;;11.90;99.90;;;;;;5033636;28;20416;-68
2022/03/27 08:10:56;;;;;;;1999.90;999.90;;;12.00;99.90;;;;;;5033427;28;20238;-68
2022/03/27 08:13:22;;;;;;;1999.90;999.90;;;12.00;99.90;;;;;;5033625;28;20820;-68
2022/03/27 08:15:47;;;;;;;1999.90;999.90;;;12.10;99.90;;;;;;5033257;28;20176;-68
2022/03/27 08:18:13;;;;;;;1999.90;999.90;;;12.20;99.90;;;;;;5033280;28;20223;-68
2022/03/27 08:20:40;;;;;;;1999.90;999.90;;;12.30;99.90;;;;;;5033419;28;20243;-68
2022/03/27 08:23:07;;;;;;;1999.90;999.90;;;12.40;99.90;;;;;;5033228;28;20175;-68
2022/03/27 08:28:20;;;;;;;1999.90;999.90;;;12.30;99.90;;;;;;5033406;28;20488;-68
2022/03/27 08:30:47;;;;;;;1999.90;999.90;;;12.40;99.90;;;;;;5032821;28;20454;-68
2022/03/27 08:33:14;;;;;;;1999.90;999.90;;;12.40;99.90;;;;;;5033079;28;20779;-68
2022/03/27 08:35:41;;;;;;;1999.90;999.90;;;12.40;99.90;;;;;;5032868;28;20407;-68
2022/03/27 08:38:12;;;;;;;1999.90;999.90;;;12.40;99.90;;;;;;5033060;28;20490;-68
2022/03/27 08:40:39;;;;;;;1999.90;999.90;;;12.40;99.90;;;;;;5032794;28;20423;-68
2022/03/27 08:43:15;;;;;;;1999.90;999.90;;;12.30;99.90;;;;;;5033214;28;20540;-68
2022/03/27 08:45:42;;;;;;;1999.90;999.90;;;12.30;99.90;;;;;;5032201;28;20464;-68
2022/03/27 08:48:09;;;;;;;1999.90;999.90;;;12.30;99.90;;;;;;5032552;28;20415;-68
2022/03/27 08:50:50;;;;;;;1999.90;999.90;;;12.40;99.90;;;;;;5032680;28;20522;-68
2022/03/27 08:53:30;;;;;;;1999.90;999.90;;;12.40;99.90;;;;;;5032846;28;20978;-68
2022/03/27 08:56:03;;;;;;;1999.90;999.90;;;12.50;99.90;;;;;;5032311;28;20419;-68
2022/03/27 08:58:40;;;;;;;1999.90;999.90;;;12.70;99.90;;;;;;5032589;28;20448;-68
2022/03/27 09:01:08;;;;;;;1999.90;999.90;;;12.80;99.90;;;;;;5032508;28;20426;-68
2022/03/27 09:03:34;;;;;;;1999.90;999.90;;;13.00;99.90;;;;;;5031512;28;20415;-68
2022/03/27 09:06:01;;;;;;;1999.90;999.90;;;13.10;99.90;;;;;;5032422;28;20473;-68
2022/03/27 09:08:29;;;;;;;1999.90;999.90;;;13.20;99.90;;;;;;5032423;28;20412;-68
2022/03/27 09:10:58;;;;;;;1999.90;999.90;;;13.40;99.90;;;;;;5032635;28;20431;-68
2022/03/27 09:13:25;;;;;;;1999.90;999.90;;;13.40;99.90;;;;;;5032554;28;20420;-68
2022/03/27 09:16:03;;;;;;;1999.90;999.90;;;13.40;99.90;;;;;;5032181;28;20412;-68
2022/03/27 09:18:48;;;;;;;1999.90;999.90;;;13.50;99.90;;;;;;5032312;28;20450;-68
2022/03/27 09:21:16;;;;;;;1999.90;999.90;;;13.40;99.90;;;;;;5032313;28;20504;-68
2022/03/27 09:23:42;;;;;;;1999.90;999.90;;;13.50;99.90;;;;;;5032161;28;20412;-68
2022/03/27 09:26:11;;;;;;;1999.90;999.90;;;13.50;99.90;;;;;;5032329;28;20461;-68
2022/03/27 09:28:39;;;;;;;1999.90;999.90;;;13.60;99.90;;;;;;5032603;28;20627;-68
2022/03/27 09:31:26;;;;;;;1999.90;999.90;;;13.70;99.90;;;;;;5031974;28;20460;-68
2022/03/27 09:33:57;;;;;;;1999.90;999.90;;;13.90;99.90;;;;;;5032169;28;20431;-68
2022/03/27 09:36:24;;;;;;;1999.90;999.90;;;14.10;99.90;;;;;;5030697;28;20410;-68
2022/03/27 09:39:19;;;;;;;1999.90;999.90;;;14.30;99.90;;;;;;5030375;28;20522;-68
2022/03/27 09:41:53;;;;;;;1999.90;999.90;;;14.50;99.90;;;;;;5030703;28;20429;-68
2022/03/27 09:44:29;;;;;;;1999.90;999.90;;;14.60;99.90;;;;;;5026716;28;20429;-68
2022/03/27 09:46:59;;;;;;;1999.90;999.90;;;14.80;99.90;;;;;;5030676;28;20441;-68
2022/03/27 09:49:31;;;;;;;1999.90;999.90;;;14.90;99.90;;;;;;5030180;28;20415;-68
2022/03/27 09:52:08;;;;;;;1999.90;999.90;;;15.10;99.90;;;;;;5030182;28;20427;-68
2022/03/27 09:54:50;;;;;;;1999.90;999.90;;;15.40;99.90;;;;;;5029589;28;20410;-68
2022/03/27 09:57:18;;;;;;;1999.90;999.90;;;15.40;99.90;;;;;;5030675;28;20819;-68
2022/03/27 09:59:45;;;;;;;1999.90;999.90;;;15.40;99.90;;;;;;5030665;28;20411;-68
2022/03/27 10:02:38;;;;;;;1999.90;999.90;;;15.20;99.90;;;;;;5030717;28;20428;-68
2022/03/27 10:05:04;;;;;;;1999.90;999.90;;;15.00;99.90;;;;;;5029500;28;20902;-68
2022/03/27 10:07:35;;;;;;;1999.90;999.90;;;15.10;99.90;;;;;;5032409;28;20413;-68
2022/03/27 10:10:01;;;;;;;1999.90;999.90;;;15.20;99.90;;;;;;5034861;28;20224;-68
2022/03/27 10:12:29;;;;;;;1999.90;999.90;;;15.40;99.90;;;;;;5034680;28;20521;-68
2022/03/27 10:14:59;;;;;;;1999.90;999.90;;;15.60;99.90;;;;;;5034506;28;20461;-69
2022/03/27 10:17:27;;;;;;;1999.90;999.90;;;15.90;99.90;;;;;;5035115;28;20447;-69
2022/03/27 10:19:57;;;;;;;1999.90;999.90;;;16.10;99.90;;;;;;5033915;28;20422;-69
2022/03/27 10:22:27;;;;;;;1999.90;999.90;;;16.10;99.90;;;;;;5034322;28;20416;-69
2022/03/27 10:24:57;;;;;;;1999.90;999.90;;;16.00;99.90;;;;;;5034559;28;20482;-68
2022/03/27 10:27:24;;;;;;;1999.90;999.90;;;15.90;99.90;;;;;;5034259;28;20425;-68
2022/03/27 10:29:50;;;;;;;1999.90;999.90;;;15.80;99.90;;;;;;5034189;28;20424;-68
2022/03/27 10:32:16;;;;;;;1999.90;999.90;;;15.60;99.90;;;;;;5034620;28;20820;-68
2022/03/27 10:34:53;;;;;;;1999.90;999.90;;;15.50;99.90;;;;;;5033798;28;20465;-68
2022/03/27 10:37:39;;;;;;;1999.90;999.90;;;15.40;99.90;;;;;;5034574;28;20200;-69
2022/03/27 10:40:22;;;;;;;1999.90;999.90;;;15.70;99.90;;;;;;5033675;28;20402;-68
2022/03/27 10:43:14;;;;;;;1999.90;999.90;;;15.80;99.90;;;;;;5033559;28;20452;-69
2022/03/27 10:45:39;;;;;;;1999.90;999.90;;;15.70;99.90;;;;;;5034291;28;20414;-69
2022/03/27 10:48:16;;;;;;;1999.90;999.90;;;15.90;99.90;;;;;;5034354;28;20418;-68
2022/03/27 10:50:55;;;;;;;1999.90;999.90;;;15.70;99.90;;;;;;5033655;28;20224;-68
2022/03/27 10:53:25;;;;;;;1999.90;999.90;;;15.60;99.90;;;;;;5034506;28;20407;-68
2022/03/27 10:55:53;;;;;;;1999.90;999.90;;;15.90;99.90;;;;;;5033993;28;20496;-69
2022/03/27 10:58:31;;;;;;;1999.90;999.90;;;15.90;99.90;;;;;;5034170;28;20461;-68
2022/03/27 11:01:01;;;;;;;1999.90;999.90;;;15.60;99.90;;;;;;5033531;28;20432;-69
2022/03/27 11:03:47;;;;;;;1999.90;999.90;;;15.80;99.90;;;;;;5033848;28;20504;-68
2022/03/27 11:06:28;;;;;;;1999.90;999.90;;;16.20;99.90;;;;;;5033621;28;20410;-68
2022/03/27 11:08:55;;;;;;;1999.90;999.90;;;16.30;99.90;;;;;;5033943;28;20884;-68
2022/03/27 11:11:39;;;;;;;1999.90;999.90;;;16.70;99.90;;;;;;5033574;28;20423;-68
2022/03/27 11:14:07;;;;;;;1999.90;999.90;;;16.90;99.90;;;;;;5033666;28;20790;-68
2022/03/27 11:16:36;;;;;;;1999.90;999.90;;;17.10;99.90;;;;;;5034090;28;20424;-69
2022/03/27 11:19:02;;;;;;;1999.90;999.90;;;17.20;99.90;;;;;;5032081;28;20843;-69
2022/03/27 11:21:27;;;;;;;1999.90;999.90;;;17.50;99.90;;;;;;5032603;28;20478;-68
2022/03/27 11:24:04;;;;;;;1999.90;999.90;;;17.60;99.90;;;;;;5033769;28;20791;-68
2022/03/27 11:26:30;;;;;;;1999.90;999.90;;;17.70;99.90;;;;;;5033627;28;20243;-69
2022/03/27 11:29:05;;;;;;;1999.90;999.90;;;17.90;99.90;;;;;;5033721;28;20497;-68
2022/03/27 11:31:36;;;;;;;1999.90;999.90;;;17.60;99.90;;;;;;5033209;28;20622;-69
2022/03/27 11:34:04;;;;;;;1999.90;999.90;;;17.60;99.90;;;;;;5033031;28;20788;-69
2022/03/27 11:36:31;;;;;;;1999.90;999.90;;;17.60;99.90;;;;;;5033866;28;20413;-68
2022/03/27 11:39:29;;;;;;;1999.90;999.90;;;17.50;99.90;;;;;;5033307;28;20480;-70
2022/03/27 11:41:54;;;;;;;1999.90;999.90;;;17.40;99.90;;;;;;5026850;28;20442;-68
2022/03/27 11:47:22;;;;;;;1999.90;999.90;;;18.00;99.90;;;;;;5033819;28;20205;-69
2022/03/27 11:49:49;;;;;;;1999.90;999.90;;;18.30;99.90;;;;;;5032803;28;20807;-68
2022/03/27 11:52:18;;;;;;;1999.90;999.90;;;19.00;99.90;;;;;;5033109;28;20937;-69
2022/03/27 11:54:46;;;;;;;1999.90;999.90;;;19.50;99.90;;;;;;5032985;28;20899;-68
2022/03/27 11:57:13;;;;;;;1999.90;999.90;;;19.80;99.90;;;;;;5032923;28;20473;-68
2022/03/27 11:59:50;;;;;;;1999.90;999.90;;;20.10;99.90;;;;;;5032637;28;20744;-68
2022/03/27 12:02:17;;;;;;;1999.90;999.90;;;20.90;99.90;;;;;;5033180;28;20432;-68
2022/03/27 12:05:01;;;;;;;1999.90;999.90;;;21.50;99.90;;;;;;5032440;28;20405;-68
2022/03/27 12:07:52;;;;;;;1999.90;999.90;;;22.10;99.90;;;;;;5033178;28;20404;-69
2022/03/27 12:10:18;;;;;;;1999.90;999.90;;;22.50;99.90;;;;;;5032944;28;20409;-70
2022/03/27 12:12:58;;;;;;;1999.90;999.90;;;23.10;99.90;;;;;;5032609;28;20833;-69
2022/03/27 12:15:38;;;;;;;1999.90;999.90;;;23.40;99.90;;;;;;5032972;28;20472;-69
2022/03/27 12:18:04;;;;;;;1999.90;999.90;;;23.40;99.90;;;;;;5032534;28;20454;-69